createdAt,value
2023-05-06T00:01:39.400Z,137.17
2023-05-06T00:04:08.015Z,138.57
2023-05-06T00:06:36.150Z,138.63
2023-05-06T00:09:05.620Z,141.37
2023-05-06T00:11:33.772Z,142.17
2023-05-06T00:14:01.906Z,142.47
2023-05-06T00:16:29.869Z,139.43
2023-05-06T00:18:57.993Z,138.57
2023-05-06T00:21:27.109Z,143.33
2023-05-06T00:23:55.103Z,140.27
2023-05-06T00:26:24.553Z,138.47
2023-05-06T00:28:52.621Z,137.87
2023-05-06T00:31:20.764Z,139.07
2023-05-06T00:33:48.857Z,140.67
2023-05-06T00:36:17.502Z,142.10
2023-05-06T00:38:45.710Z,143.10
2023-05-06T00:41:13.820Z,140.03
2023-05-06T00:43:43.235Z,140.63
2023-05-06T00:46:12.071Z,138.73
2023-05-06T00:48:40.701Z,138.93
2023-05-06T00:51:09.362Z,135.67
2023-05-06T00:53:38.048Z,138.47
2023-05-06T00:56:06.456Z,138.00
2023-05-06T00:58:35.434Z,138.73
2023-05-06T01:01:04.945Z,135.57
2023-05-06T01:03:33.157Z,132.80
2023-05-06T01:06:12.514Z,134.40
2023-05-06T01:08:46.779Z,133.53
2023-05-06T01:11:21.595Z,137.57
2023-05-06T01:13:57.340Z,139.00
2023-05-06T01:16:30.871Z,137.47
2023-05-06T01:19:01.271Z,138.07
2023-05-06T01:21:34.950Z,138.87
2023-05-06T01:24:04.589Z,140.37
2023-05-06T01:26:32.674Z,140.73
2023-05-06T01:29:02.073Z,141.80
2023-05-06T01:31:39.261Z,141.97
2023-05-06T01:34:15.205Z,138.80
2023-05-06T01:36:49.456Z,138.83
2023-05-06T01:39:21.385Z,139.87
2023-05-06T01:41:51.197Z,141.33
2023-05-06T01:44:23.344Z,136.97
2023-05-06T01:46:52.637Z,136.10
2023-05-06T01:49:23.190Z,130.73
2023-05-06T01:51:53.607Z,135.20
2023-05-06T01:54:23.060Z,135.80
2023-05-06T01:56:51.070Z,134.43
2023-05-06T01:59:19.243Z,135.27
2023-05-06T02:01:47.358Z,136.70
2023-05-06T02:04:16.162Z,139.30
2023-05-06T02:06:44.217Z,141.03
2023-05-06T02:09:12.279Z,138.87
2023-05-06T02:11:41.684Z,142.60
2023-05-06T02:14:09.799Z,145.43
2023-05-06T02:16:37.814Z,144.73
2023-05-06T02:19:06.342Z,142.60
2023-05-06T02:21:34.375Z,143.80
2023-05-06T02:24:02.504Z,143.20
2023-05-06T02:26:30.661Z,146.10
2023-05-06T02:29:00.041Z,144.87
2023-05-06T02:31:28.139Z,143.83
2023-05-06T02:33:56.283Z,141.53
2023-05-06T02:36:24.325Z,141.27
2023-05-06T02:38:52.401Z,142.87
2023-05-06T02:41:20.694Z,144.87
2023-05-06T02:43:48.772Z,144.73
2023-05-06T02:46:18.333Z,146.27
2023-05-06T02:48:46.444Z,144.50
2023-05-06T02:51:14.502Z,141.43
2023-05-06T02:53:42.595Z,143.73
2023-05-06T02:56:10.654Z,140.93
2023-05-06T02:58:38.763Z,140.90
2023-05-06T03:01:06.875Z,139.10
2023-05-06T03:03:36.442Z,139.03
2023-05-06T03:06:04.654Z,141.23
2023-05-06T03:08:32.814Z,136.83
2023-05-06T03:11:00.944Z,139.07
2023-05-06T03:13:29.007Z,140.13
2023-05-06T03:15:57.252Z,139.83
2023-05-06T03:18:25.387Z,138.40
2023-05-06T03:20:54.772Z,138.67
2023-05-06T03:23:22.834Z,138.90
2023-05-06T03:25:50.878Z,138.40
2023-05-06T03:28:18.960Z,139.53
2023-05-06T03:30:47.085Z,136.83
2023-05-06T03:33:15.118Z,138.37
2023-05-06T03:35:43.196Z,142.77
2023-05-06T03:38:12.605Z,140.97
2023-05-06T03:40:40.840Z,137.67
2023-05-06T03:43:09.010Z,143.70
2023-05-06T03:45:37.947Z,142.97
2023-05-06T03:48:06.414Z,136.17
2023-05-06T03:50:34.672Z,139.27
2023-05-06T03:53:02.801Z,136.93
2023-05-06T03:55:32.279Z,137.53
2023-05-06T03:58:00.405Z,137.73
2023-05-06T04:00:28.585Z,138.20
2023-05-06T04:02:56.767Z,139.30
2023-05-06T04:05:24.924Z,143.80
2023-05-06T04:07:53.024Z,142.67
2023-05-06T04:10:21.442Z,141.70
2023-05-06T04:12:51.082Z,142.37
2023-05-06T04:15:19.487Z,137.83
2023-05-06T04:17:47.693Z,131.63
2023-05-06T04:20:16.157Z,137.50
2023-05-06T04:22:44.255Z,132.87
2023-05-06T04:25:13.169Z,132.97
2023-05-06T04:27:41.426Z,134.13
2023-05-06T04:30:12.176Z,138.03
2023-05-06T04:32:40.526Z,134.43
2023-05-06T04:35:10.127Z,135.27
2023-05-06T04:37:38.406Z,134.50
2023-05-06T04:40:07.670Z,134.73
2023-05-06T04:42:35.745Z,138.00
2023-05-06T04:45:04.056Z,140.93
2023-05-06T04:47:33.563Z,144.23
2023-05-06T04:50:01.677Z,149.37
2023-05-06T04:52:30.226Z,147.47
2023-05-06T04:54:58.297Z,150.77
2023-05-06T04:57:26.511Z,151.60
2023-05-06T04:59:54.651Z,155.70
2023-05-06T05:02:22.832Z,158.53
2023-05-06T05:04:52.340Z,153.83
2023-05-06T05:07:20.419Z,160.47
2023-05-06T05:09:48.460Z,161.37
2023-05-06T05:12:16.536Z,160.60
2023-05-06T05:14:44.594Z,164.70
2023-05-06T05:17:12.754Z,159.60
2023-05-06T05:19:40.994Z,162.13
2023-05-06T05:22:10.372Z,162.13
2023-05-06T05:24:38.790Z,158.60
2023-05-06T05:27:07.535Z,153.40
2023-05-06T05:29:35.626Z,150.10
2023-05-06T05:32:03.878Z,150.47
2023-05-06T05:34:32.652Z,150.43
2023-05-06T05:37:00.814Z,149.83
2023-05-06T05:39:30.309Z,151.00
2023-05-06T05:41:58.438Z,149.50
2023-05-06T05:44:26.516Z,146.13
2023-05-06T05:46:54.673Z,145.27
2023-05-06T05:49:22.742Z,146.33
2023-05-06T05:51:50.787Z,151.97
2023-05-06T05:54:18.920Z,157.90
2023-05-06T05:56:48.296Z,164.70
2023-05-06T05:59:16.430Z,160.47
2023-05-06T06:01:44.938Z,157.17
2023-05-06T06:04:13.052Z,162.40
2023-05-06T06:06:41.257Z,158.43
2023-05-06T06:09:10.338Z,161.80
2023-05-06T06:11:38.574Z,161.60
2023-05-06T06:14:08.134Z,163.57
2023-05-06T06:16:37.961Z,164.00
2023-05-06T06:19:06.492Z,166.77
2023-05-06T06:21:34.567Z,166.80
2023-05-06T06:24:02.664Z,166.57
2023-05-06T06:26:30.801Z,164.47
2023-05-06T06:28:58.867Z,164.20
2023-05-06T06:31:29.341Z,163.90
2023-05-06T06:33:57.489Z,159.27
2023-05-06T06:36:25.564Z,154.40
2023-05-06T06:38:53.584Z,158.83
2023-05-06T06:41:22.593Z,157.03
2023-05-06T06:43:50.690Z,154.53
2023-05-06T06:46:18.955Z,156.90
2023-05-06T06:48:49.018Z,154.20
2023-05-06T06:51:17.101Z,157.10
2023-05-06T06:53:48.271Z,151.23
2023-05-06T06:56:16.853Z,147.47
2023-05-06T06:58:45.103Z,150.93
2023-05-06T07:01:13.726Z,150.83
2023-05-06T07:03:42.139Z,146.20
2023-05-06T07:06:11.653Z,141.93
2023-05-06T07:08:39.669Z,145.03
2023-05-06T07:11:07.739Z,150.30
2023-05-06T07:13:35.889Z,138.13
2023-05-06T07:16:03.930Z,131.40
2023-05-06T07:18:31.975Z,128.70
2023-05-06T07:21:00.051Z,115.53
2023-05-06T07:23:31.133Z,116.77
2023-05-06T07:26:00.543Z,109.37
2023-05-06T07:28:28.638Z,103.30
2023-05-06T07:30:56.772Z,109.87
2023-05-06T07:33:24.982Z,103.67
2023-05-06T07:35:54.263Z,86.50
2023-05-06T07:38:22.934Z,75.27
2023-05-06T07:40:52.995Z,65.67
2023-05-06T07:43:23.524Z,58.20
2023-05-06T07:45:51.832Z,57.10
2023-05-06T07:48:20.394Z,51.83
2023-05-06T07:50:48.591Z,54.57
2023-05-06T07:53:16.626Z,55.63
2023-05-06T07:55:44.736Z,48.90
2023-05-06T07:58:14.221Z,41.53
2023-05-06T08:00:42.331Z,38.97
2023-05-06T08:03:10.470Z,38.27
2023-05-06T08:05:38.535Z,35.90
2023-05-06T08:08:06.783Z,36.87
2023-05-06T08:10:35.032Z,37.00
2023-05-06T08:13:03.255Z,36.17
2023-05-06T08:15:32.788Z,34.53
2023-05-06T08:18:13.846Z,31.90
2023-05-06T08:20:48.917Z,28.87
2023-05-06T08:23:16.959Z,28.40
2023-05-06T08:25:45.055Z,28.60
2023-05-06T08:28:13.122Z,28.87
2023-05-06T08:30:42.555Z,29.10
2023-05-06T08:33:10.903Z,30.03
2023-05-06T08:35:38.966Z,29.77
2023-05-06T08:38:07.059Z,29.90
2023-05-06T08:40:35.413Z,29.30
2023-05-06T08:43:05.478Z,26.40
2023-05-06T08:45:34.062Z,27.20
2023-05-06T08:48:03.674Z,27.33
2023-05-06T08:50:31.825Z,26.37
2023-05-06T08:53:00.987Z,25.97
2023-05-06T08:55:29.365Z,26.10
2023-05-06T08:57:58.377Z,26.00
2023-05-06T09:00:26.773Z,26.20
2023-05-06T09:02:54.901Z,24.40
2023-05-06T09:05:24.397Z,24.63
2023-05-06T09:07:52.729Z,23.20
2023-05-06T09:10:20.805Z,23.23
2023-05-06T09:12:48.864Z,22.40
2023-05-06T09:15:16.997Z,22.67
2023-05-06T09:17:45.232Z,22.23
2023-05-06T09:20:13.810Z,21.40
2023-05-06T09:22:43.431Z,23.43
2023-05-06T09:25:12.202Z,21.30
2023-05-06T09:27:41.182Z,20.70
2023-05-06T09:30:11.965Z,21.47
2023-05-06T09:32:40.901Z,22.43
2023-05-06T09:35:10.636Z,21.97
2023-05-06T09:37:39.541Z,21.70
2023-05-06T09:40:10.983Z,19.87
2023-05-06T09:42:39.326Z,21.37
2023-05-06T09:45:10.206Z,20.60
2023-05-06T09:47:39.038Z,20.93
2023-05-06T09:50:09.930Z,21.27
2023-05-06T09:52:38.668Z,20.37
2023-05-06T09:55:10.111Z,20.47
2023-05-06T09:57:38.960Z,20.37
2023-05-06T10:00:13.243Z,20.43
2023-05-06T10:02:42.202Z,21.20
2023-05-06T10:05:12.580Z,19.60
2023-05-06T10:07:41.879Z,20.73
2023-05-06T10:10:13.048Z,20.93
2023-05-06T10:12:41.468Z,19.30
2023-05-06T10:15:10.952Z,20.00
2023-05-06T10:17:41.005Z,20.27
2023-05-06T10:20:14.598Z,19.50
2023-05-06T10:22:53.433Z,19.57
2023-05-06T10:25:32.935Z,19.63
2023-05-06T10:28:01.566Z,19.97
2023-05-06T10:30:33.804Z,19.30
2023-05-06T10:33:06.006Z,19.30
2023-05-06T10:35:47.263Z,19.83
2023-05-06T10:38:21.027Z,19.40
2023-05-06T10:40:52.214Z,19.77
2023-05-06T10:43:29.125Z,20.67
2023-05-06T10:46:06.029Z,19.43
2023-05-06T10:48:34.472Z,19.00
2023-05-06T10:51:23.786Z,20.83
2023-05-06T10:53:59.461Z,19.90
2023-05-06T10:56:29.826Z,20.20
2023-05-06T10:58:58.255Z,20.00
2023-05-06T11:01:28.258Z,20.37
2023-05-06T11:03:56.687Z,20.77
2023-05-06T11:06:35.779Z,20.33
2023-05-06T11:09:05.600Z,20.10
2023-05-06T11:11:52.787Z,20.13
2023-05-06T11:14:28.891Z,20.03
2023-05-06T11:16:58.647Z,19.80
2023-05-06T11:19:28.215Z,20.03
2023-05-06T11:21:58.258Z,19.97
2023-05-06T11:24:28.166Z,20.30
2023-05-06T11:26:59.850Z,19.50
2023-05-06T11:29:28.149Z,19.70
2023-05-06T11:31:56.257Z,19.10
2023-05-06T11:34:27.271Z,19.57
2023-05-06T11:37:02.346Z,20.63
2023-05-06T11:39:34.915Z,19.93
2023-05-06T11:42:09.687Z,20.60
2023-05-06T11:44:39.746Z,20.87
2023-05-06T11:47:09.694Z,20.27
2023-05-06T11:49:39.094Z,19.80
2023-05-06T11:52:08.576Z,19.50
2023-05-06T11:54:37.720Z,19.43
2023-05-06T11:57:05.896Z,19.80
2023-05-06T11:59:37.482Z,19.87
2023-05-06T12:02:07.295Z,20.57
2023-05-06T12:04:39.622Z,20.20
2023-05-06T12:07:08.694Z,20.70
2023-05-06T12:09:37.659Z,19.70
2023-05-06T12:12:06.681Z,20.13
2023-05-06T12:14:37.123Z,19.80
2023-05-06T12:17:05.907Z,19.40
2023-05-06T12:19:34.308Z,19.30
2023-05-06T12:22:19.163Z,19.33
2023-05-06T12:24:47.959Z,19.10
2023-05-06T12:27:16.375Z,19.53
2023-05-06T12:29:54.287Z,19.37
2023-05-06T12:32:22.376Z,19.80
2023-05-06T12:34:50.489Z,19.13
2023-05-06T12:37:26.347Z,20.33
2023-05-06T12:39:57.014Z,20.47
2023-05-06T12:42:27.024Z,19.67
2023-05-06T12:44:56.896Z,20.03
2023-05-06T12:47:26.889Z,19.40
2023-05-06T12:49:58.046Z,19.03
2023-05-06T12:52:28.574Z,20.03
2023-05-06T12:54:57.611Z,19.37
2023-05-06T12:57:26.175Z,19.17
2023-05-06T12:59:56.240Z,19.50
2023-05-06T13:02:26.079Z,18.77
2023-05-06T13:04:54.273Z,20.07
2023-05-06T13:07:22.565Z,18.77
2023-05-06T13:09:50.794Z,18.83
2023-05-06T13:12:19.198Z,18.93
2023-05-06T13:14:47.345Z,18.70
2023-05-06T13:17:15.739Z,20.08
2023-05-06T13:19:45.359Z,18.90
2023-05-06T13:22:13.532Z,18.60
2023-05-06T13:24:41.614Z,19.50
2023-05-06T13:27:10.130Z,19.23
2023-05-06T13:29:38.287Z,19.70
2023-05-06T13:32:08.792Z,19.30
2023-05-06T13:34:37.341Z,18.80
2023-05-06T13:37:06.961Z,18.77
2023-05-06T13:39:35.133Z,18.73
2023-05-06T13:42:06.061Z,19.03
2023-05-06T13:44:35.874Z,19.50
2023-05-06T13:47:04.089Z,19.10
2023-05-06T13:49:32.423Z,19.20
2023-05-06T13:52:00.684Z,19.20
2023-05-06T13:54:30.165Z,20.53
2023-05-06T13:56:59.028Z,18.80
2023-05-06T13:59:27.282Z,18.87
2023-05-06T14:01:57.042Z,19.30
2023-05-06T14:04:25.245Z,19.33
2023-05-06T14:06:53.619Z,19.60
2023-05-06T14:09:21.693Z,19.60
2023-05-06T14:11:51.441Z,19.70
2023-05-06T14:14:20.594Z,19.33
2023-05-06T14:16:48.932Z,20.20
2023-05-06T14:19:17.233Z,19.83
2023-05-06T14:21:45.526Z,19.90
2023-05-06T14:24:13.630Z,23.70
2023-05-06T14:26:41.790Z,20.17
2023-05-06T14:29:11.361Z,19.47
2023-05-06T14:31:39.554Z,18.97
2023-05-06T14:34:07.851Z,18.87
2023-05-06T14:36:35.931Z,18.80
2023-05-06T14:39:04.019Z,18.87
2023-05-06T14:41:32.193Z,18.90
2023-05-06T14:44:00.368Z,19.10
2023-05-06T14:46:30.015Z,19.00
2023-05-06T14:48:58.343Z,19.33
2023-05-06T14:51:26.410Z,19.10
2023-05-06T14:53:54.539Z,19.20
2023-05-06T14:56:22.665Z,19.20
2023-05-06T14:58:50.814Z,19.00
2023-05-06T15:01:18.908Z,19.33
2023-05-06T15:03:50.708Z,20.10
2023-05-06T15:06:19.259Z,19.40
2023-05-06T15:08:47.384Z,19.60
2023-05-06T15:11:15.870Z,19.30
2023-05-06T15:13:43.979Z,19.70
2023-05-06T15:16:11.972Z,19.47
2023-05-06T15:18:41.843Z,21.23
2023-05-06T15:21:13.311Z,19.93
2023-05-06T15:23:41.557Z,20.20
2023-05-06T15:26:09.706Z,19.30
2023-05-06T15:28:37.843Z,19.70
2023-05-06T15:31:06.011Z,19.90
2023-05-06T15:33:34.070Z,19.57
2023-05-06T15:36:02.159Z,19.43
2023-05-06T15:38:58.374Z,19.30
2023-05-06T15:41:30.354Z,19.70
2023-05-06T15:43:59.866Z,19.33
2023-05-06T15:46:28.941Z,19.30
2023-05-06T15:49:12.773Z,19.60
2023-05-06T15:51:45.488Z,19.93
2023-05-06T15:54:18.259Z,20.33
2023-05-06T15:56:46.644Z,19.40
2023-05-06T15:59:14.722Z,19.57
2023-05-06T16:02:24.438Z,19.80
2023-05-06T16:04:31.978Z,19.50
2023-05-06T16:07:00.381Z,19.60
2023-05-06T16:09:29.861Z,19.20
2023-05-06T16:11:57.974Z,19.40
2023-05-06T16:14:26.098Z,19.30
2023-05-06T16:16:54.034Z,19.37
2023-05-06T16:19:22.110Z,19.00
2023-05-06T16:21:50.239Z,18.90
2023-05-06T16:24:18.315Z,19.00
2023-05-06T16:26:47.770Z,19.37
2023-05-06T16:29:19.060Z,19.80
2023-05-06T16:31:47.661Z,19.47
2023-05-06T16:34:16.137Z,26.33
2023-05-06T16:36:44.660Z,19.03
2023-05-06T16:39:13.127Z,19.00
2023-05-06T16:41:41.367Z,19.60
2023-05-06T16:44:10.861Z,18.90
2023-05-06T16:46:39.225Z,19.67
2023-05-06T16:49:07.358Z,18.93
2023-05-06T16:51:35.450Z,19.33
2023-05-06T16:54:03.519Z,19.33
2023-05-06T16:56:43.951Z,20.20
2023-05-06T16:59:21.408Z,19.80
2023-05-06T17:01:50.217Z,19.30
2023-05-06T17:04:18.386Z,19.63
2023-05-06T17:06:46.572Z,19.53
2023-05-06T17:09:14.924Z,20.20
2023-05-06T17:11:43.093Z,19.23
2023-05-06T17:14:11.902Z,19.20
2023-05-06T17:16:41.611Z,18.90
2023-05-06T17:19:10.215Z,19.63
2023-05-06T17:21:38.431Z,20.00
2023-05-06T17:24:06.924Z,19.47
2023-05-06T17:26:36.044Z,19.90
2023-05-06T17:29:04.211Z,19.40
2023-05-06T17:31:32.442Z,20.00
2023-05-06T17:34:02.393Z,20.30
2023-05-06T17:36:31.216Z,21.77
2023-05-06T17:39:03.192Z,21.40
2023-05-06T17:41:31.574Z,19.97
2023-05-06T17:43:59.955Z,20.53
2023-05-06T17:46:28.586Z,20.13
2023-05-06T17:48:57.162Z,19.73
2023-05-06T17:51:27.026Z,20.50
2023-05-06T17:53:55.970Z,20.23
2023-05-06T17:56:24.416Z,21.07
2023-05-06T17:58:52.993Z,21.03
2023-05-06T18:01:21.619Z,20.97
2023-05-06T18:03:50.257Z,21.50
2023-05-06T18:06:18.756Z,22.50
2023-05-06T18:08:48.563Z,23.10
2023-05-06T18:11:17.369Z,22.30
2023-05-06T18:13:45.688Z,22.57
2023-05-06T18:16:13.929Z,22.90
2023-05-06T18:18:43.682Z,21.20
2023-05-06T18:21:12.130Z,22.40
2023-05-06T18:23:40.511Z,22.10
2023-05-06T18:26:10.467Z,22.50
2023-05-06T18:28:38.869Z,22.33
2023-05-06T18:31:08.063Z,21.93
2023-05-06T18:33:36.693Z,22.83
2023-05-06T18:36:05.294Z,22.57
2023-05-06T18:38:33.893Z,21.77
2023-05-06T18:41:03.306Z,22.57
2023-05-06T18:43:32.956Z,21.87
2023-05-06T18:46:01.424Z,22.60
2023-05-06T18:48:31.992Z,23.50
2023-05-06T18:51:14.391Z,23.87
2023-05-06T18:53:43.039Z,23.50
2023-05-06T18:56:12.000Z,23.70
2023-05-06T18:58:42.187Z,25.53
2023-05-06T19:01:11.593Z,24.47
2023-05-06T19:03:40.227Z,25.23
2023-05-06T19:06:09.376Z,25.60
2023-05-06T19:08:38.682Z,25.53
2023-05-06T19:11:07.143Z,26.67
2023-05-06T19:13:35.896Z,28.00
2023-05-06T19:16:05.634Z,26.70
2023-05-06T19:18:34.053Z,26.53
2023-05-06T19:21:02.612Z,27.47
2023-05-06T19:23:33.068Z,28.47
2023-05-06T19:26:01.604Z,29.80
2023-05-06T19:28:29.667Z,29.53
2023-05-06T19:30:58.810Z,30.50
2023-05-06T19:33:28.404Z,30.90
2023-05-06T19:35:56.449Z,30.57
2023-05-06T19:38:24.743Z,30.60
2023-05-06T19:40:52.957Z,31.80
2023-05-06T19:43:21.263Z,32.23
2023-05-06T19:45:49.465Z,31.33
2023-05-06T19:48:17.963Z,32.03
2023-05-06T19:50:47.583Z,32.77
2023-05-06T19:53:15.651Z,32.27
2023-05-06T19:55:43.742Z,32.50
2023-05-06T19:58:14.103Z,34.00
2023-05-06T20:00:42.328Z,34.27
2023-05-06T20:03:10.573Z,33.23
2023-05-06T20:05:38.851Z,35.23
2023-05-06T20:08:10.799Z,35.47
2023-05-06T20:10:39.558Z,37.97
2023-05-06T20:13:07.955Z,38.70
2023-05-06T20:15:36.489Z,39.10
2023-05-06T20:18:04.939Z,39.20
2023-05-06T20:20:35.955Z,43.47
2023-05-06T20:23:05.249Z,43.27
2023-05-06T20:25:36.897Z,44.90
2023-05-06T20:28:06.506Z,42.13
2023-05-06T20:30:34.891Z,41.53
2023-05-06T20:33:03.092Z,42.97
2023-05-06T20:35:31.437Z,43.10
2023-05-06T20:37:59.779Z,44.07
2023-05-06T20:40:28.565Z,46.13
2023-05-06T20:42:58.313Z,45.97
2023-05-06T20:45:27.737Z,47.00
2023-05-06T20:47:55.925Z,44.90
2023-05-06T20:50:24.088Z,45.80
2023-05-06T20:52:52.962Z,46.57
2023-05-06T20:55:23.384Z,46.23
2023-05-06T20:57:51.828Z,48.87
2023-05-06T21:00:22.446Z,48.37
2023-05-06T21:02:50.885Z,48.47
2023-05-06T21:05:19.110Z,52.13
2023-05-06T21:07:47.450Z,54.37
2023-05-06T21:10:15.712Z,53.70
2023-05-06T21:12:48.273Z,54.90
2023-05-06T21:15:16.516Z,58.20
2023-05-06T21:17:46.376Z,56.33
2023-05-06T21:20:14.836Z,56.20
2023-05-06T21:22:42.981Z,58.17
2023-05-06T21:25:13.246Z,59.00
2023-05-06T21:27:41.578Z,58.60
2023-05-06T21:30:11.483Z,59.73
2023-05-06T21:32:39.677Z,61.83
2023-05-06T21:35:10.269Z,65.33
2023-05-06T21:37:38.559Z,68.57
2023-05-06T21:40:07.612Z,68.47
2023-05-06T21:42:35.948Z,69.50
2023-05-06T21:45:04.149Z,71.00
2023-05-06T21:47:32.398Z,72.90
2023-05-06T21:50:00.645Z,75.93
2023-05-06T21:52:30.189Z,74.30
2023-05-06T21:55:00.489Z,75.93
2023-05-06T21:57:28.633Z,73.77
2023-05-06T21:59:56.813Z,72.77
2023-05-06T22:02:25.104Z,72.90
2023-05-06T22:04:53.370Z,70.93
2023-05-06T22:07:21.737Z,70.40
2023-05-06T22:09:52.207Z,71.30
2023-05-06T22:12:20.381Z,74.60
2023-05-06T22:14:48.534Z,75.47
2023-05-06T22:17:16.763Z,74.40
2023-05-06T22:19:44.859Z,73.17
2023-05-06T22:22:13.448Z,72.03
2023-05-06T22:24:41.466Z,70.87
2023-05-06T22:27:10.897Z,72.60
2023-05-06T22:29:38.969Z,74.57
2023-05-06T22:32:07.485Z,72.00
2023-05-06T22:34:35.735Z,67.83
2023-05-06T22:37:09.461Z,65.77
2023-05-06T22:39:37.616Z,63.60
2023-05-06T22:42:05.882Z,65.90
2023-05-06T22:44:35.432Z,67.23
2023-05-06T22:47:03.628Z,70.87
2023-05-06T22:49:32.836Z,74.13
2023-05-06T22:52:00.942Z,74.50
2023-05-06T22:54:28.994Z,73.53
2023-05-06T22:56:57.081Z,71.30
2023-05-06T22:59:26.354Z,70.07
2023-05-06T23:01:56.046Z,69.67
2023-05-06T23:04:24.326Z,69.37
2023-05-06T23:06:52.487Z,72.60
2023-05-06T23:09:20.656Z,73.23
2023-05-06T23:11:48.772Z,76.67
2023-05-06T23:14:17.348Z,79.57
2023-05-06T23:16:45.509Z,79.87
2023-05-06T23:19:15.051Z,81.50
2023-05-06T23:21:43.948Z,82.60
2023-05-06T23:24:12.782Z,82.57
2023-05-06T23:26:40.990Z,85.03
2023-05-06T23:29:09.128Z,86.17
2023-05-06T23:31:38.155Z,88.00
2023-05-06T23:34:06.360Z,89.73
2023-05-06T23:36:35.995Z,90.30
2023-05-06T23:39:04.215Z,89.30
2023-05-06T23:41:32.296Z,89.80
2023-05-06T23:44:00.474Z,89.97
2023-05-06T23:46:28.611Z,93.47
2023-05-06T23:48:56.741Z,91.70
2023-05-06T23:51:24.885Z,87.77
2023-05-06T23:53:54.387Z,87.33
2023-05-06T23:56:22.499Z,89.83
2023-05-06T23:58:50.576Z,92.07
